Aviation Digital Data Service (ADDS)

Output produced by METARs form (1037 UTC 18 June 2019)
found at http://www.aviationweather.gov/metar/data/
 
METAR text: GQNO 181000Z 03016KT CAVOK 33/10 Q1013 NOSIG
Conditions at: GQNO (NOUAKCHOTT/OUMTO, MR) observed 1000 UTC 18 June 2019
Temperature: 33.0°C (91°F)
Dewpoint: 10.0°C (50°F) [RH = 24%]
Pressure (altimeter): 29.91 inches Hg (1013.0 mb)
Winds: from the NNE (30 degrees) at 18 MPH (16 knots; 8.2 m/s)
Visibility: 6 or more miles (10+ km)
Ceiling: ceiling and visibility are OK
Clouds: unknown
Weather: no significant weather observed at this time

METAR text: GQNO 180930Z 03016KT CAVOK 31/11 Q1012 NOSIG
Conditions at: GQNO (NOUAKCHOTT/OUMTO, MR) observed 0930 UTC 18 June 2019
Temperature: 31.0°C (88°F)
Dewpoint: 11.0°C (52°F) [RH = 29%]
Pressure (altimeter): 29.88 inches Hg (1012.0 mb)
Winds: from the NNE (30 degrees) at 18 MPH (16 knots; 8.2 m/s)
Visibility: 6 or more miles (10+ km)
Ceiling: ceiling and visibility are OK
Clouds: unknown
Weather: no significant weather observed at this time

METAR text: GQNO 180900Z 02016KT 7000 NSC 29/11 Q1012 NOSIG
Conditions at: GQNO (NOUAKCHOTT/OUMTO, MR) observed 0900 UTC 18 June 2019
Temperature: 29.0°C (84°F)
Dewpoint: 11.0°C (52°F) [RH = 33%]
Pressure (altimeter): 29.88 inches Hg (1012.0 mb)
Winds: from the NNE (20 degrees) at 18 MPH (16 knots; 8.2 m/s)
Visibility: 4 miles ( 7 km)
Ceiling: at least 12,000 feet AGL
Clouds: sky clear below 12,000 feet AGL
Weather: no significant weather observed at this time

METAR text: GQNO 180830Z 01014KT 7000 NSC 28/11 Q1012 NOSIG
Conditions at: GQNO (NOUAKCHOTT/OUMTO, MR) observed 0830 UTC 18 June 2019
Temperature: 28.0°C (82°F)
Dewpoint: 11.0°C (52°F) [RH = 35%]
Pressure (altimeter): 29.88 inches Hg (1012.0 mb)
Winds: from the N (10 degrees) at 16 MPH (14 knots; 7.2 m/s)
Visibility: 4 miles ( 7 km)
Ceiling: at least 12,000 feet AGL
Clouds: sky clear below 12,000 feet AGL
Weather: no significant weather observed at this time

METAR text: GQNO 180800Z 01012KT 7000 NSC 27/10 Q1012 NOSIG
Conditions at: GQNO (NOUAKCHOTT/OUMTO, MR) observed 0800 UTC 18 June 2019
Temperature: 27.0°C (81°F)
Dewpoint: 10.0°C (50°F) [RH = 34%]
Pressure (altimeter): 29.88 inches Hg (1012.0 mb)
Winds: from the N (10 degrees) at 14 MPH (12 knots; 6.2 m/s)
Visibility: 4 miles ( 7 km)
Ceiling: at least 12,000 feet AGL
Clouds: sky clear below 12,000 feet AGL
Weather: no significant weather observed at this time

METAR text: GQNO 180730Z 01011KT 6000 NSC 26/10 Q1012 NOSIG
Conditions at: GQNO (NOUAKCHOTT/OUMTO, MR) observed 0730 UTC 18 June 2019
Temperature: 26.0°C (79°F)
Dewpoint: 10.0°C (50°F) [RH = 37%]
Pressure (altimeter): 29.88 inches Hg (1012.0 mb)
Winds: from the N (10 degrees) at 13 MPH (11 knots; 5.7 m/s)
Visibility: 4 miles ( 6 km)
Ceiling: at least 12,000 feet AGL
Clouds: sky clear below 12,000 feet AGL
Weather: no significant weather observed at this time

METAR text: GQNO 180700Z 01015KT 6000 NSC 26/10 Q1011 NOSIG
Conditions at: GQNO (NOUAKCHOTT/OUMTO, MR) observed 0700 UTC 18 June 2019
Temperature: 26.0°C (79°F)
Dewpoint: 10.0°C (50°F) [RH = 37%]
Pressure (altimeter): 29.85 inches Hg (1011.0 mb)
Winds: from the N (10 degrees) at 17 MPH (15 knots; 7.7 m/s)
Visibility: 4 miles ( 6 km)
Ceiling: at least 12,000 feet AGL
Clouds: sky clear below 12,000 feet AGL
Weather: no significant weather observed at this time

METAR text: GQNO 180630Z 01016KT 6000 NSC 26/10 Q1011 NOSIG
Conditions at: GQNO (NOUAKCHOTT/OUMTO, MR) observed 0630 UTC 18 June 2019
Temperature: 26.0°C (79°F)
Dewpoint: 10.0°C (50°F) [RH = 37%]
Pressure (altimeter): 29.85 inches Hg (1011.0 mb)
Winds: from the N (10 degrees) at 18 MPH (16 knots; 8.2 m/s)
Visibility: 4 miles ( 6 km)
Ceiling: at least 12,000 feet AGL
Clouds: sky clear below 12,000 feet AGL
Weather: no significant weather observed at this time

METAR text: GQNO 180600Z 01015KT 7000 NSC 26/10 Q1011 NOSIG
Conditions at: GQNO (NOUAKCHOTT/OUMTO, MR) observed 0600 UTC 18 June 2019
Temperature: 26.0°C (79°F)
Dewpoint: 10.0°C (50°F) [RH = 37%]
Pressure (altimeter): 29.85 inches Hg (1011.0 mb)
Winds: from the N (10 degrees) at 17 MPH (15 knots; 7.7 m/s)
Visibility: 4 miles ( 7 km)
Ceiling: at least 12,000 feet AGL
Clouds: sky clear below 12,000 feet AGL
Weather: no significant weather observed at this time

METAR text: GQNO 180530Z 01014KT 7000 NSC 26/10 Q1011 NOSIG
Conditions at: GQNO (NOUAKCHOTT/OUMTO, MR) observed 0530 UTC 18 June 2019
Temperature: 26.0°C (79°F)
Dewpoint: 10.0°C (50°F) [RH = 37%]
Pressure (altimeter): 29.85 inches Hg (1011.0 mb)
Winds: from the N (10 degrees) at 16 MPH (14 knots; 7.2 m/s)
Visibility: 4 miles ( 7 km)
Ceiling: at least 12,000 feet AGL
Clouds: sky clear below 12,000 feet AGL
Weather: no significant weather observed at this time

METAR text: GQNO 180500Z 01014KT 7000 NSC 27/11 Q1011 NOSIG
Conditions at: GQNO (NOUAKCHOTT/OUMTO, MR) observed 0500 UTC 18 June 2019
Temperature: 27.0°C (81°F)
Dewpoint: 11.0°C (52°F) [RH = 37%]
Pressure (altimeter): 29.85 inches Hg (1011.0 mb)
Winds: from the N (10 degrees) at 16 MPH (14 knots; 7.2 m/s)
Visibility: 4 miles ( 7 km)
Ceiling: at least 12,000 feet AGL
Clouds: sky clear below 12,000 feet AGL
Weather: no significant weather observed at this time

METAR text: GQNO 180430Z 36013KT 6000 NSC 27/11 Q1011 NOSIG
Conditions at: GQNO (NOUAKCHOTT/OUMTO, MR) observed 0430 UTC 18 June 2019
Temperature: 27.0°C (81°F)
Dewpoint: 11.0°C (52°F) [RH = 37%]
Pressure (altimeter): 29.85 inches Hg (1011.0 mb)
Winds: from the N (360 degrees) at 15 MPH (13 knots; 6.7 m/s)
Visibility: 4 miles ( 6 km)
Ceiling: at least 12,000 feet AGL
Clouds: sky clear below 12,000 feet AGL
Weather: no significant weather observed at this time

METAR text: GQNO 180400Z 36014KT 6000 NSC 27/11 Q1011 NOSIG
Conditions at: GQNO (NOUAKCHOTT/OUMTO, MR) observed 0400 UTC 18 June 2019
Temperature: 27.0°C (81°F)
Dewpoint: 11.0°C (52°F) [RH = 37%]
Pressure (altimeter): 29.85 inches Hg (1011.0 mb)
Winds: from the N (360 degrees) at 16 MPH (14 knots; 7.2 m/s)
Visibility: 4 miles ( 6 km)
Ceiling: at least 12,000 feet AGL
Clouds: sky clear below 12,000 feet AGL
Weather: no significant weather observed at this time

METAR text: GQNO 180330Z 36015KT 6000 NSC 27/11 Q1011 NOSIG
Conditions at: GQNO (NOUAKCHOTT/OUMTO, MR) observed 0330 UTC 18 June 2019
Temperature: 27.0°C (81°F)
Dewpoint: 11.0°C (52°F) [RH = 37%]
Pressure (altimeter): 29.85 inches Hg (1011.0 mb)
Winds: from the N (360 degrees) at 17 MPH (15 knots; 7.7 m/s)
Visibility: 4 miles ( 6 km)
Ceiling: at least 12,000 feet AGL
Clouds: sky clear below 12,000 feet AGL
Weather: no significant weather observed at this time

METAR text: GQNO 180300Z 36014KT 4500 BLSA NSC 27/11 Q1011 WS R34 NOSIG
Conditions at: GQNO (NOUAKCHOTT/OUMTO, MR) observed 0300 UTC 18 June 2019
Temperature: 27.0°C (81°F)
Dewpoint: 11.0°C (52°F) [RH = 37%]
Pressure (altimeter): 29.85 inches Hg (1011.0 mb)
Winds: from the N (360 degrees) at 16 MPH (14 knots; 7.2 m/s)
Visibility: 2.80 miles (4.51 km)
Ceiling: at least 12,000 feet AGL
Clouds: sky clear below 12,000 feet AGL
Weather: BLSA  (blowing sand)

METAR text: GQNO 180230Z 36014KT 4500 BLSA NSC 27/11 Q1011 WS R34 NOSIG
Conditions at: GQNO (NOUAKCHOTT/OUMTO, MR) observed 0230 UTC 18 June 2019
Temperature: 27.0°C (81°F)
Dewpoint: 11.0°C (52°F) [RH = 37%]
Pressure (altimeter): 29.85 inches Hg (1011.0 mb)
Winds: from the N (360 degrees) at 16 MPH (14 knots; 7.2 m/s)
Visibility: 2.80 miles (4.51 km)
Ceiling: at least 12,000 feet AGL
Clouds: sky clear below 12,000 feet AGL
Weather: BLSA  (blowing sand)

METAR text: GQNO 180200Z 36017KT 4500 BLSA NSC 28/12 Q1011 WS R34 NOSIG
Conditions at: GQNO (NOUAKCHOTT/OUMTO, MR) observed 0200 UTC 18 June 2019
Temperature: 28.0°C (82°F)
Dewpoint: 12.0°C (54°F) [RH = 37%]
Pressure (altimeter): 29.85 inches Hg (1011.0 mb)
Winds: from the N (360 degrees) at 20 MPH (17 knots; 8.7 m/s)
Visibility: 2.80 miles (4.51 km)
Ceiling: at least 12,000 feet AGL
Clouds: sky clear below 12,000 feet AGL
Weather: BLSA  (blowing sand)

METAR text: GQNO 180130Z 36019KT 4500 BLSA NSC 28/12 Q1012 WS RWY34 NOSIG
Conditions at: GQNO (NOUAKCHOTT/OUMTO, MR) observed 0130 UTC 18 June 2019
Temperature: 28.0°C (82°F)
Dewpoint: 12.0°C (54°F) [RH = 37%]
Pressure (altimeter): 29.88 inches Hg (1012.0 mb)
Winds: from the N (360 degrees) at 22 MPH (19 knots; 9.8 m/s)
Visibility: 2.80 miles (4.51 km)
Ceiling: at least 12,000 feet AGL
Clouds: sky clear below 12,000 feet AGL
Weather: BLSA  (blowing sand)

METAR text: GQNO 180100Z 35018KT 4500 BLSA NSC 28/13 Q1012 NOSIG
Conditions at: GQNO (NOUAKCHOTT/OUMTO, MR) observed 0100 UTC 18 June 2019
Temperature: 28.0°C (82°F)
Dewpoint: 13.0°C (55°F) [RH = 40%]
Pressure (altimeter): 29.88 inches Hg (1012.0 mb)
Winds: from the N (350 degrees) at 21 MPH (18 knots; 9.3 m/s)
Visibility: 2.80 miles (4.51 km)
Ceiling: at least 12,000 feet AGL
Clouds: sky clear below 12,000 feet AGL
Weather: BLSA  (blowing sand)

METAR text: GQNO 180030Z 35018KT 8000 NSC 28/14 Q1012 NOSIG
Conditions at: GQNO (NOUAKCHOTT/OUMTO, MR) observed 0030 UTC 18 June 2019
Temperature: 28.0°C (82°F)
Dewpoint: 14.0°C (57°F) [RH = 42%]
Pressure (altimeter): 29.88 inches Hg (1012.0 mb)
Winds: from the N (350 degrees) at 21 MPH (18 knots; 9.3 m/s)
Visibility: 5 miles ( 8 km)
Ceiling: at least 12,000 feet AGL
Clouds: sky clear below 12,000 feet AGL
Weather: no significant weather observed at this time

METAR text: GQNO 180000Z 35020KT 8000 NSC 28/15 Q1012 NOSIG
Conditions at: GQNO (NOUAKCHOTT/OUMTO, MR) observed 0000 UTC 18 June 2019
Temperature: 28.0°C (82°F)
Dewpoint: 15.0°C (59°F) [RH = 45%]
Pressure (altimeter): 29.88 inches Hg (1012.0 mb)
Winds: from the N (350 degrees) at 23 MPH (20 knots; 10.3 m/s)
Visibility: 5 miles ( 8 km)
Ceiling: at least 12,000 feet AGL
Clouds: sky clear below 12,000 feet AGL
Weather: no significant weather observed at this time

METAR text: GQNO 172330Z 35019KT 8000 NSC 27/17 Q1012 NOSIG
Conditions at: GQNO (NOUAKCHOTT/OUMTO, MR) observed 2330 UTC 17 June 2019
Temperature: 27.0°C (81°F)
Dewpoint: 17.0°C (63°F) [RH = 54%]
Pressure (altimeter): 29.88 inches Hg (1012.0 mb)
Winds: from the N (350 degrees) at 22 MPH (19 knots; 9.8 m/s)
Visibility: 5 miles ( 8 km)
Ceiling: at least 12,000 feet AGL
Clouds: sky clear below 12,000 feet AGL
Weather: no significant weather observed at this time

METAR text: GQNO 172300Z 35019KT 8000 NSC 26/19 Q1012 NOSIG
Conditions at: GQNO (NOUAKCHOTT/OUMTO, MR) observed 2300 UTC 17 June 2019
Temperature: 26.0°C (79°F)
Dewpoint: 19.0°C (66°F) [RH = 65%]
Pressure (altimeter): 29.88 inches Hg (1012.0 mb)
Winds: from the N (350 degrees) at 22 MPH (19 knots; 9.8 m/s)
Visibility: 5 miles ( 8 km)
Ceiling: at least 12,000 feet AGL
Clouds: sky clear below 12,000 feet AGL
Weather: no significant weather observed at this time

METAR text: GQNO 172230Z 34019KT 8000 NSC 26/20 Q1012 NOSIG
Conditions at: GQNO (NOUAKCHOTT/OUMTO, MR) observed 2230 UTC 17 June 2019
Temperature: 26.0°C (79°F)
Dewpoint: 20.0°C (68°F) [RH = 70%]
Pressure (altimeter): 29.88 inches Hg (1012.0 mb)
Winds: from the NNW (340 degrees) at 22 MPH (19 knots; 9.8 m/s)
Visibility: 5 miles ( 8 km)
Ceiling: at least 12,000 feet AGL
Clouds: sky clear below 12,000 feet AGL
Weather: no significant weather observed at this time

METAR text: GQNO 172200Z 34019KT 8000 NSC 26/19 Q1012 NOSIG
Conditions at: GQNO (NOUAKCHOTT/OUMTO, MR) observed 2200 UTC 17 June 2019
Temperature: 26.0°C (79°F)
Dewpoint: 19.0°C (66°F) [RH = 65%]
Pressure (altimeter): 29.88 inches Hg (1012.0 mb)
Winds: from the NNW (340 degrees) at 22 MPH (19 knots; 9.8 m/s)
Visibility: 5 miles ( 8 km)
Ceiling: at least 12,000 feet AGL
Clouds: sky clear below 12,000 feet AGL
Weather: no significant weather observed at this time

METAR text: GQNO 172130Z 34018KT 8000 NSC 26/19 Q1012 NOSIG
Conditions at: GQNO (NOUAKCHOTT/OUMTO, MR) observed 2130 UTC 17 June 2019
Temperature: 26.0°C (79°F)
Dewpoint: 19.0°C (66°F) [RH = 65%]
Pressure (altimeter): 29.88 inches Hg (1012.0 mb)
Winds: from the NNW (340 degrees) at 21 MPH (18 knots; 9.3 m/s)
Visibility: 5 miles ( 8 km)
Ceiling: at least 12,000 feet AGL
Clouds: sky clear below 12,000 feet AGL
Weather: no significant weather observed at this time

METAR text: GQNO 172100Z 34018KT 8000 NSC 26/19 Q1011 NOSIG
Conditions at: GQNO (NOUAKCHOTT/OUMTO, MR) observed 2100 UTC 17 June 2019
Temperature: 26.0°C (79°F)
Dewpoint: 19.0°C (66°F) [RH = 65%]
Pressure (altimeter): 29.85 inches Hg (1011.0 mb)
Winds: from the NNW (340 degrees) at 21 MPH (18 knots; 9.3 m/s)
Visibility: 5 miles ( 8 km)
Ceiling: at least 12,000 feet AGL
Clouds: sky clear below 12,000 feet AGL
Weather: no significant weather observed at this time

METAR text: GQNO 172030Z 34018KT 8000 NSC 26/18 Q1011 NOSIG
Conditions at: GQNO (NOUAKCHOTT/OUMTO, MR) observed 2030 UTC 17 June 2019
Temperature: 26.0°C (79°F)
Dewpoint: 18.0°C (64°F) [RH = 61%]
Pressure (altimeter): 29.85 inches Hg (1011.0 mb)
Winds: from the NNW (340 degrees) at 21 MPH (18 knots; 9.3 m/s)
Visibility: 5 miles ( 8 km)
Ceiling: at least 12,000 feet AGL
Clouds: sky clear below 12,000 feet AGL
Weather: no significant weather observed at this time

METAR text: GQNO 172000Z 33019KT 6000 NSC 26/18 Q1011 NOSIG
Conditions at: GQNO (NOUAKCHOTT/OUMTO, MR) observed 2000 UTC 17 June 2019
Temperature: 26.0°C (79°F)
Dewpoint: 18.0°C (64°F) [RH = 61%]
Pressure (altimeter): 29.85 inches Hg (1011.0 mb)
Winds: from the NNW (330 degrees) at 22 MPH (19 knots; 9.8 m/s)
Visibility: 4 miles ( 6 km)
Ceiling: at least 12,000 feet AGL
Clouds: sky clear below 12,000 feet AGL
Weather: no significant weather observed at this time

METAR text: GQNO 171930Z 33018KT 6000 NSC 28/17 Q1010 NOSIG
Conditions at: GQNO (NOUAKCHOTT/OUMTO, MR) observed 1930 UTC 17 June 2019
Temperature: 28.0°C (82°F)
Dewpoint: 17.0°C (63°F) [RH = 51%]
Pressure (altimeter): 29.82 inches Hg (1010.0 mb)
Winds: from the NNW (330 degrees) at 21 MPH (18 knots; 9.3 m/s)
Visibility: 4 miles ( 6 km)
Ceiling: at least 12,000 feet AGL
Clouds: sky clear below 12,000 feet AGL
Weather: no significant weather observed at this time

METAR text: GQNO 171900Z 33019KT 6000 NSC 28/17 Q1010 NOSIG
Conditions at: GQNO (NOUAKCHOTT/OUMTO, MR) observed 1900 UTC 17 June 2019
Temperature: 28.0°C (82°F)
Dewpoint: 17.0°C (63°F) [RH = 51%]
Pressure (altimeter): 29.82 inches Hg (1010.0 mb)
Winds: from the NNW (330 degrees) at 22 MPH (19 knots; 9.8 m/s)
Visibility: 4 miles ( 6 km)
Ceiling: at least 12,000 feet AGL
Clouds: sky clear below 12,000 feet AGL
Weather: no significant weather observed at this time

METAR text: GQNO 171830Z 33022KT 6000 NSC 29/17 Q1010 NOSIG
Conditions at: GQNO (NOUAKCHOTT/OUMTO, MR) observed 1830 UTC 17 June 2019
Temperature: 29.0°C (84°F)
Dewpoint: 17.0°C (63°F) [RH = 48%]
Pressure (altimeter): 29.82 inches Hg (1010.0 mb)
Winds: from the NNW (330 degrees) at 25 MPH (22 knots; 11.3 m/s)
Visibility: 4 miles ( 6 km)
Ceiling: at least 12,000 feet AGL
Clouds: sky clear below 12,000 feet AGL
Weather: no significant weather observed at this time

METAR text: GQNO 171800Z 33020KT 6000 NSC 31/17 Q1010 NOSIG
Conditions at: GQNO (NOUAKCHOTT/OUMTO, MR) observed 1800 UTC 17 June 2019
Temperature: 31.0°C (88°F)
Dewpoint: 17.0°C (63°F) [RH = 43%]
Pressure (altimeter): 29.82 inches Hg (1010.0 mb)
Winds: from the NNW (330 degrees) at 23 MPH (20 knots; 10.3 m/s)
Visibility: 4 miles ( 6 km)
Ceiling: at least 12,000 feet AGL
Clouds: sky clear below 12,000 feet AGL
Weather: no significant weather observed at this time

METAR text: GQNO 171730Z 33019KT 6000 NSC 31/17 Q1010 NOSIG
Conditions at: GQNO (NOUAKCHOTT/OUMTO, MR) observed 1730 UTC 17 June 2019
Temperature: 31.0°C (88°F)
Dewpoint: 17.0°C (63°F) [RH = 43%]
Pressure (altimeter): 29.82 inches Hg (1010.0 mb)
Winds: from the NNW (330 degrees) at 22 MPH (19 knots; 9.8 m/s)
Visibility: 4 miles ( 6 km)
Ceiling: at least 12,000 feet AGL
Clouds: sky clear below 12,000 feet AGL
Weather: no significant weather observed at this time

METAR text: GQNO 171700Z 33019KT 6000 NSC 32/18 Q1010 NOSIG
Conditions at: GQNO (NOUAKCHOTT/OUMTO, MR) observed 1700 UTC 17 June 2019
Temperature: 32.0°C (90°F)
Dewpoint: 18.0°C (64°F) [RH = 43%]
Pressure (altimeter): 29.82 inches Hg (1010.0 mb)
Winds: from the NNW (330 degrees) at 22 MPH (19 knots; 9.8 m/s)
Visibility: 4 miles ( 6 km)
Ceiling: at least 12,000 feet AGL
Clouds: sky clear below 12,000 feet AGL
Weather: no significant weather observed at this time

METAR text: GQNO 171630Z 33019KT 6000 NSC 32/17 Q1010 NOSIG
Conditions at: GQNO (NOUAKCHOTT/OUMTO, MR) observed 1630 UTC 17 June 2019
Temperature: 32.0°C (90°F)
Dewpoint: 17.0°C (63°F) [RH = 41%]
Pressure (altimeter): 29.82 inches Hg (1010.0 mb)
Winds: from the NNW (330 degrees) at 22 MPH (19 knots; 9.8 m/s)
Visibility: 4 miles ( 6 km)
Ceiling: at least 12,000 feet AGL
Clouds: sky clear below 12,000 feet AGL
Weather: no significant weather observed at this time

METAR text: GQNO 171600Z 33021KT 6000 NSC 32/17 Q1010 NOSIG
Conditions at: GQNO (NOUAKCHOTT/OUMTO, MR) observed 1600 UTC 17 June 2019
Temperature: 32.0°C (90°F)
Dewpoint: 17.0°C (63°F) [RH = 41%]
Pressure (altimeter): 29.82 inches Hg (1010.0 mb)
Winds: from the NNW (330 degrees) at 24 MPH (21 knots; 10.8 m/s)
Visibility: 4 miles ( 6 km)
Ceiling: at least 12,000 feet AGL
Clouds: sky clear below 12,000 feet AGL
Weather: no significant weather observed at this time

METAR text: GQNO 171530Z 33018KT 6000 NSC 33/17 Q1011 NOSIG
Conditions at: GQNO (NOUAKCHOTT/OUMTO, MR) observed 1530 UTC 17 June 2019
Temperature: 33.0°C (91°F)
Dewpoint: 17.0°C (63°F) [RH = 39%]
Pressure (altimeter): 29.85 inches Hg (1011.0 mb)
Winds: from the NNW (330 degrees) at 21 MPH (18 knots; 9.3 m/s)
Visibility: 4 miles ( 6 km)
Ceiling: at least 12,000 feet AGL
Clouds: sky clear below 12,000 feet AGL
Weather: no significant weather observed at this time

METAR text: GQNO 171500Z 32017KT 7000 NSC 35/16 Q1011 NOSIG
Conditions at: GQNO (NOUAKCHOTT/OUMTO, MR) observed 1500 UTC 17 June 2019
Temperature: 35.0°C (95°F)
Dewpoint: 16.0°C (61°F) [RH = 32%]
Pressure (altimeter): 29.85 inches Hg (1011.0 mb)
Winds: from the NW (320 degrees) at 20 MPH (17 knots; 8.7 m/s)
Visibility: 4 miles ( 7 km)
Ceiling: at least 12,000 feet AGL
Clouds: sky clear below 12,000 feet AGL
Weather: no significant weather observed at this time

METAR text: GQNO 171430Z 04014KT 7000 NSC 37/14 Q1011 NOSIG
Conditions at: GQNO (NOUAKCHOTT/OUMTO, MR) observed 1430 UTC 17 June 2019
Temperature: 37.0°C (99°F)
Dewpoint: 14.0°C (57°F) [RH = 25%]
Pressure (altimeter): 29.85 inches Hg (1011.0 mb)
Winds: from the NE (40 degrees) at 16 MPH (14 knots; 7.2 m/s)
Visibility: 4 miles ( 7 km)
Ceiling: at least 12,000 feet AGL
Clouds: sky clear below 12,000 feet AGL
Weather: no significant weather observed at this time

METAR text: GQNO 171400Z 05016KT 7000 NSC 40/12 Q1012 NOSIG
Conditions at: GQNO (NOUAKCHOTT/OUMTO, MR) observed 1400 UTC 17 June 2019
Temperature: 40.0°C (104°F)
Dewpoint: 12.0°C (54°F) [RH = 19%]
Pressure (altimeter): 29.88 inches Hg (1012.0 mb)
Winds: from the NE (50 degrees) at 18 MPH (16 knots; 8.2 m/s)
Visibility: 4 miles ( 7 km)
Ceiling: at least 12,000 feet AGL
Clouds: sky clear below 12,000 feet AGL
Weather: no significant weather observed at this time

METAR text: GQNO 171330Z 04015KT 010V070 7000 NSC 43/05 Q1012 NOSIG
Conditions at: GQNO (NOUAKCHOTT/OUMTO, MR) observed 1330 UTC 17 June 2019
Temperature: 43.0°C (109°F)
Dewpoint: 5.0°C (41°F) [RH = 10%]
Pressure (altimeter): 29.88 inches Hg (1012.0 mb)
Winds: from the NE (40 degrees) at 17 MPH (15 knots; 7.7 m/s)
Visibility: 4 miles ( 7 km)
Ceiling: at least 12,000 feet AGL
Clouds: sky clear below 12,000 feet AGL
Weather: no significant weather observed at this time

METAR text: GQNO 171300Z 03016KT 7000 NSC 43/05 Q1012 NOSIG
Conditions at: GQNO (NOUAKCHOTT/OUMTO, MR) observed 1300 UTC 17 June 2019
Temperature: 43.0°C (109°F)
Dewpoint: 5.0°C (41°F) [RH = 10%]
Pressure (altimeter): 29.88 inches Hg (1012.0 mb)
Winds: from the NNE (30 degrees) at 18 MPH (16 knots; 8.2 m/s)
Visibility: 4 miles ( 7 km)
Ceiling: at least 12,000 feet AGL
Clouds: sky clear below 12,000 feet AGL
Weather: no significant weather observed at this time

METAR text: GQNO 171230Z 05016KT 8000 NSC 42/04 Q1012 NOSIG
Conditions at: GQNO (NOUAKCHOTT/OUMTO, MR) observed 1230 UTC 17 June 2019
Temperature: 42.0°C (108°F)
Dewpoint: 4.0°C (39°F) [RH = 10%]
Pressure (altimeter): 29.88 inches Hg (1012.0 mb)
Winds: from the NE (50 degrees) at 18 MPH (16 knots; 8.2 m/s)
Visibility: 5 miles ( 8 km)
Ceiling: at least 12,000 feet AGL
Clouds: sky clear below 12,000 feet AGL
Weather: no significant weather observed at this time

METAR text: GQNO 171130Z 05016KT 8000 NSC 40/05 Q1013 NOSIG
Conditions at: GQNO (NOUAKCHOTT/OUMTO, MR) observed 1130 UTC 17 June 2019
Temperature: 40.0°C (104°F)
Dewpoint: 5.0°C (41°F) [RH = 12%]
Pressure (altimeter): 29.91 inches Hg (1013.0 mb)
Winds: from the NE (50 degrees) at 18 MPH (16 knots; 8.2 m/s)
Visibility: 5 miles ( 8 km)
Ceiling: at least 12,000 feet AGL
Clouds: sky clear below 12,000 feet AGL
Weather: no significant weather observed at this time

METAR text: GQNO 171100Z 04016KT 8000 NSC 39/05 Q1013 NOSIG
Conditions at: GQNO (NOUAKCHOTT/OUMTO, MR) observed 1100 UTC 17 June 2019
Temperature: 39.0°C (102°F)
Dewpoint: 5.0°C (41°F) [RH = 12%]
Pressure (altimeter): 29.91 inches Hg (1013.0 mb)
Winds: from the NE (40 degrees) at 18 MPH (16 knots; 8.2 m/s)
Visibility: 5 miles ( 8 km)
Ceiling: at least 12,000 feet AGL
Clouds: sky clear below 12,000 feet AGL
Weather: no significant weather observed at this time

METAR text: GQNO 171030Z 03015KT 8000 NSC 37/06 Q1013 NOSIG
Conditions at: GQNO (NOUAKCHOTT/OUMTO, MR) observed 1030 UTC 17 June 2019
Temperature: 37.0°C (99°F)
Dewpoint: 6.0°C (43°F) [RH = 15%]
Pressure (altimeter): 29.91 inches Hg (1013.0 mb)
Winds: from the NNE (30 degrees) at 17 MPH (15 knots; 7.7 m/s)
Visibility: 5 miles ( 8 km)
Ceiling: at least 12,000 feet AGL
Clouds: sky clear below 12,000 feet AGL
Weather: no significant weather observed at this time

METAR text: GQNO 171000Z 02015KT 8000 NSC 35/06 Q1013 NOSIG
Conditions at: GQNO (NOUAKCHOTT/OUMTO, MR) observed 1000 UTC 17 June 2019
Temperature: 35.0°C (95°F)
Dewpoint: 6.0°C (43°F) [RH = 17%]
Pressure (altimeter): 29.91 inches Hg (1013.0 mb)
Winds: from the NNE (20 degrees) at 17 MPH (15 knots; 7.7 m/s)
Visibility: 5 miles ( 8 km)
Ceiling: at least 12,000 feet AGL
Clouds: sky clear below 12,000 feet AGL
Weather: no significant weather observed at this time

METAR text: GQNO 170930Z 02015KT 8000 NSC 33/07 Q1013 NOSIG
Conditions at: GQNO (NOUAKCHOTT/OUMTO, MR) observed 0930 UTC 17 June 2019
Temperature: 33.0°C (91°F)
Dewpoint: 7.0°C (45°F) [RH = 20%]
Pressure (altimeter): 29.91 inches Hg (1013.0 mb)
Winds: from the NNE (20 degrees) at 17 MPH (15 knots; 7.7 m/s)
Visibility: 5 miles ( 8 km)
Ceiling: at least 12,000 feet AGL
Clouds: sky clear below 12,000 feet AGL
Weather: no significant weather observed at this time

METAR text: GQNO 170900Z 02016KT 8000 NSC 31/09 Q1013 NOSIG
Conditions at: GQNO (NOUAKCHOTT/OUMTO, MR) observed 0900 UTC 17 June 2019
Temperature: 31.0°C (88°F)
Dewpoint: 9.0°C (48°F) [RH = 26%]
Pressure (altimeter): 29.91 inches Hg (1013.0 mb)
Winds: from the NNE (20 degrees) at 18 MPH (16 knots; 8.2 m/s)
Visibility: 5 miles ( 8 km)
Ceiling: at least 12,000 feet AGL
Clouds: sky clear below 12,000 feet AGL
Weather: no significant weather observed at this time

METAR text: GQNO 170830Z 01014KT 8000 NSC 29/10 Q1013 NOSIG
Conditions at: GQNO (NOUAKCHOTT/OUMTO, MR) observed 0830 UTC 17 June 2019
Temperature: 29.0°C (84°F)
Dewpoint: 10.0°C (50°F) [RH = 31%]
Pressure (altimeter): 29.91 inches Hg (1013.0 mb)
Winds: from the N (10 degrees) at 16 MPH (14 knots; 7.2 m/s)
Visibility: 5 miles ( 8 km)
Ceiling: at least 12,000 feet AGL
Clouds: sky clear below 12,000 feet AGL
Weather: no significant weather observed at this time

METAR text: GQNO 170800Z 01014KT 8000 NSC 28/11 Q1013 NOSIG
Conditions at: GQNO (NOUAKCHOTT/OUMTO, MR) observed 0800 UTC 17 June 2019
Temperature: 28.0°C (82°F)
Dewpoint: 11.0°C (52°F) [RH = 35%]
Pressure (altimeter): 29.91 inches Hg (1013.0 mb)
Winds: from the N (10 degrees) at 16 MPH (14 knots; 7.2 m/s)
Visibility: 5 miles ( 8 km)
Ceiling: at least 12,000 feet AGL
Clouds: sky clear below 12,000 feet AGL
Weather: no significant weather observed at this time

METAR text: GQNO 170730Z 01013KT 8000 NSC 27/12 Q1013 NOSIG
Conditions at: GQNO (NOUAKCHOTT/OUMTO, MR) observed 0730 UTC 17 June 2019
Temperature: 27.0°C (81°F)
Dewpoint: 12.0°C (54°F) [RH = 39%]
Pressure (altimeter): 29.91 inches Hg (1013.0 mb)
Winds: from the N (10 degrees) at 15 MPH (13 knots; 6.7 m/s)
Visibility: 5 miles ( 8 km)
Ceiling: at least 12,000 feet AGL
Clouds: sky clear below 12,000 feet AGL
Weather: no significant weather observed at this time

METAR text: GQNO 170700Z 01014KT 8000 NSC 27/12 Q1012 NOSIG
Conditions at: GQNO (NOUAKCHOTT/OUMTO, MR) observed 0700 UTC 17 June 2019
Temperature: 27.0°C (81°F)
Dewpoint: 12.0°C (54°F) [RH = 39%]
Pressure (altimeter): 29.88 inches Hg (1012.0 mb)
Winds: from the N (10 degrees) at 16 MPH (14 knots; 7.2 m/s)
Visibility: 5 miles ( 8 km)
Ceiling: at least 12,000 feet AGL
Clouds: sky clear below 12,000 feet AGL
Weather: no significant weather observed at this time

METAR text: GQNO 170630Z 01015KT 8000 NSC 27/11 Q1012 NOSIG
Conditions at: GQNO (NOUAKCHOTT/OUMTO, MR) observed 0630 UTC 17 June 2019
Temperature: 27.0°C (81°F)
Dewpoint: 11.0°C (52°F) [RH = 37%]
Pressure (altimeter): 29.88 inches Hg (1012.0 mb)
Winds: from the N (10 degrees) at 17 MPH (15 knots; 7.7 m/s)
Visibility: 5 miles ( 8 km)
Ceiling: at least 12,000 feet AGL
Clouds: sky clear below 12,000 feet AGL
Weather: no significant weather observed at this time

METAR text: GQNO 170600Z 01013KT 8000 NSC 27/11 Q1012 NOSIG
Conditions at: GQNO (NOUAKCHOTT/OUMTO, MR) observed 0600 UTC 17 June 2019
Temperature: 27.0°C (81°F)
Dewpoint: 11.0°C (52°F) [RH = 37%]
Pressure (altimeter): 29.88 inches Hg (1012.0 mb)
Winds: from the N (10 degrees) at 15 MPH (13 knots; 6.7 m/s)
Visibility: 5 miles ( 8 km)
Ceiling: at least 12,000 feet AGL
Clouds: sky clear below 12,000 feet AGL
Weather: no significant weather observed at this time

METAR text: GQNO 170530Z 01016KT 8000 NSC 28/11 Q1012 NOSIG
Conditions at: GQNO (NOUAKCHOTT/OUMTO, MR) observed 0530 UTC 17 June 2019
Temperature: 28.0°C (82°F)
Dewpoint: 11.0°C (52°F) [RH = 35%]
Pressure (altimeter): 29.88 inches Hg (1012.0 mb)
Winds: from the N (10 degrees) at 18 MPH (16 knots; 8.2 m/s)
Visibility: 5 miles ( 8 km)
Ceiling: at least 12,000 feet AGL
Clouds: sky clear below 12,000 feet AGL
Weather: no significant weather observed at this time

METAR text: GQNO 170500Z 01016KT 8000 NSC 28/12 Q1011 NOSIG
Conditions at: GQNO (NOUAKCHOTT/OUMTO, MR) observed 0500 UTC 17 June 2019
Temperature: 28.0°C (82°F)
Dewpoint: 12.0°C (54°F) [RH = 37%]
Pressure (altimeter): 29.85 inches Hg (1011.0 mb)
Winds: from the N (10 degrees) at 18 MPH (16 knots; 8.2 m/s)
Visibility: 5 miles ( 8 km)
Ceiling: at least 12,000 feet AGL
Clouds: sky clear below 12,000 feet AGL
Weather: no significant weather observed at this time

METAR text: GQNO 170430Z 36014KT 8000 NSC 29/12 Q1011 NOSIG
Conditions at: GQNO (NOUAKCHOTT/OUMTO, MR) observed 0430 UTC 17 June 2019
Temperature: 29.0°C (84°F)
Dewpoint: 12.0°C (54°F) [RH = 35%]
Pressure (altimeter): 29.85 inches Hg (1011.0 mb)
Winds: from the N (360 degrees) at 16 MPH (14 knots; 7.2 m/s)
Visibility: 5 miles ( 8 km)
Ceiling: at least 12,000 feet AGL
Clouds: sky clear below 12,000 feet AGL
Weather: no significant weather observed at this time

METAR text: GQNO 170400Z 36014KT 8000 NSC 29/12 Q1012 NOSIG
Conditions at: GQNO (NOUAKCHOTT/OUMTO, MR) observed 0400 UTC 17 June 2019
Temperature: 29.0°C (84°F)
Dewpoint: 12.0°C (54°F) [RH = 35%]
Pressure (altimeter): 29.88 inches Hg (1012.0 mb)
Winds: from the N (360 degrees) at 16 MPH (14 knots; 7.2 m/s)
Visibility: 5 miles ( 8 km)
Ceiling: at least 12,000 feet AGL
Clouds: sky clear below 12,000 feet AGL
Weather: no significant weather observed at this time

METAR text: GQNO 170330Z 36015KT 8000 NSC 29/12 Q1012 NOSIG
Conditions at: GQNO (NOUAKCHOTT/OUMTO, MR) observed 0330 UTC 17 June 2019
Temperature: 29.0°C (84°F)
Dewpoint: 12.0°C (54°F) [RH = 35%]
Pressure (altimeter): 29.88 inches Hg (1012.0 mb)
Winds: from the N (360 degrees) at 17 MPH (15 knots; 7.7 m/s)
Visibility: 5 miles ( 8 km)
Ceiling: at least 12,000 feet AGL
Clouds: sky clear below 12,000 feet AGL
Weather: no significant weather observed at this time

METAR text: GQNO 170300Z 36012KT 8000 NSC 30/12 Q1012 NOSIG
Conditions at: GQNO (NOUAKCHOTT/OUMTO, MR) observed 0300 UTC 17 June 2019
Temperature: 30.0°C (86°F)
Dewpoint: 12.0°C (54°F) [RH = 33%]
Pressure (altimeter): 29.88 inches Hg (1012.0 mb)
Winds: from the N (360 degrees) at 14 MPH (12 knots; 6.2 m/s)
Visibility: 5 miles ( 8 km)
Ceiling: at least 12,000 feet AGL
Clouds: sky clear below 12,000 feet AGL
Weather: no significant weather observed at this time

METAR text: GQNO 170230Z 36014KT 8000 NSC 30/13 Q1012 NOSIG
Conditions at: GQNO (NOUAKCHOTT/OUMTO, MR) observed 0230 UTC 17 June 2019
Temperature: 30.0°C (86°F)
Dewpoint: 13.0°C (55°F) [RH = 35%]
Pressure (altimeter): 29.88 inches Hg (1012.0 mb)
Winds: from the N (360 degrees) at 16 MPH (14 knots; 7.2 m/s)
Visibility: 5 miles ( 8 km)
Ceiling: at least 12,000 feet AGL
Clouds: sky clear below 12,000 feet AGL
Weather: no significant weather observed at this time

METAR text: GQNO 170200Z 36016KT 8000 NSC 30/14 Q1012 NOSIG
Conditions at: GQNO (NOUAKCHOTT/OUMTO, MR) observed 0200 UTC 17 June 2019
Temperature: 30.0°C (86°F)
Dewpoint: 14.0°C (57°F) [RH = 38%]
Pressure (altimeter): 29.88 inches Hg (1012.0 mb)
Winds: from the N (360 degrees) at 18 MPH (16 knots; 8.2 m/s)
Visibility: 5 miles ( 8 km)
Ceiling: at least 12,000 feet AGL
Clouds: sky clear below 12,000 feet AGL
Weather: no significant weather observed at this time

METAR text: GQNO 170130Z 36018KT 8000 NSC 30/14 Q1012 NOSIG
Conditions at: GQNO (NOUAKCHOTT/OUMTO, MR) observed 0130 UTC 17 June 2019
Temperature: 30.0°C (86°F)
Dewpoint: 14.0°C (57°F) [RH = 38%]
Pressure (altimeter): 29.88 inches Hg (1012.0 mb)
Winds: from the N (360 degrees) at 21 MPH (18 knots; 9.3 m/s)
Visibility: 5 miles ( 8 km)
Ceiling: at least 12,000 feet AGL
Clouds: sky clear below 12,000 feet AGL
Weather: no significant weather observed at this time

METAR text: GQNO 170100Z 36017KT 8000 NSC 30/15 Q1013 NOSIG
Conditions at: GQNO (NOUAKCHOTT/OUMTO, MR) observed 0100 UTC 17 June 2019
Temperature: 30.0°C (86°F)
Dewpoint: 15.0°C (59°F) [RH = 40%]
Pressure (altimeter): 29.91 inches Hg (1013.0 mb)
Winds: from the N (360 degrees) at 20 MPH (17 knots; 8.7 m/s)
Visibility: 5 miles ( 8 km)
Ceiling: at least 12,000 feet AGL
Clouds: sky clear below 12,000 feet AGL
Weather: no significant weather observed at this time

METAR text: GQNO 170030Z 36017KT 8000 NSC 30/15 Q1013 NOSIG
Conditions at: GQNO (NOUAKCHOTT/OUMTO, MR) observed 0030 UTC 17 June 2019
Temperature: 30.0°C (86°F)
Dewpoint: 15.0°C (59°F) [RH = 40%]
Pressure (altimeter): 29.91 inches Hg (1013.0 mb)
Winds: from the N (360 degrees) at 20 MPH (17 knots; 8.7 m/s)
Visibility: 5 miles ( 8 km)
Ceiling: at least 12,000 feet AGL
Clouds: sky clear below 12,000 feet AGL
Weather: no significant weather observed at this time

METAR text: GQNO 170000Z 35018KT 8000 NSC 29/16 Q1013 NOSIG
Conditions at: GQNO (NOUAKCHOTT/OUMTO, MR) observed 0000 UTC 17 June 2019
Temperature: 29.0°C (84°F)
Dewpoint: 16.0°C (61°F) [RH = 45%]
Pressure (altimeter): 29.91 inches Hg (1013.0 mb)
Winds: from the N (350 degrees) at 21 MPH (18 knots; 9.3 m/s)
Visibility: 5 miles ( 8 km)
Ceiling: at least 12,000 feet AGL
Clouds: sky clear below 12,000 feet AGL
Weather: no significant weather observed at this time

METAR text: GQNO 162330Z 35016KT 8000 NSC 28/18 Q1013 NOSIG
Conditions at: GQNO (NOUAKCHOTT/OUMTO, MR) observed 2330 UTC 16 June 2019
Temperature: 28.0°C (82°F)
Dewpoint: 18.0°C (64°F) [RH = 55%]
Pressure (altimeter): 29.91 inches Hg (1013.0 mb)
Winds: from the N (350 degrees) at 18 MPH (16 knots; 8.2 m/s)
Visibility: 5 miles ( 8 km)
Ceiling: at least 12,000 feet AGL
Clouds: sky clear below 12,000 feet AGL
Weather: no significant weather observed at this time

METAR text: GQNO 162300Z 34015KT 8000 NSC 27/18 Q1013 NOSIG
Conditions at: GQNO (NOUAKCHOTT/OUMTO, MR) observed 2300 UTC 16 June 2019
Temperature: 27.0°C (81°F)
Dewpoint: 18.0°C (64°F) [RH = 58%]
Pressure (altimeter): 29.91 inches Hg (1013.0 mb)
Winds: from the NNW (340 degrees) at 17 MPH (15 knots; 7.7 m/s)
Visibility: 5 miles ( 8 km)
Ceiling: at least 12,000 feet AGL
Clouds: sky clear below 12,000 feet AGL
Weather: no significant weather observed at this time

Forecast for: GQNO (NOUAKCHOTT/OUMTO, MR)
Text: TAF GQNO 180500Z 1806/1912 36014KT 6000 NSC
Forecast period: 0600 to 0800 UTC 18 June 2019
Forecast type: FROM: standard forecast or significant change
Winds: from the N (360 degrees) at 16 MPH (14 knots; 7.2 m/s)
Visibility: 4 miles (6 km)
Ceiling: unknown
Clouds: missing
Weather: no significant weather forecast for this period
Text: BECMG 1808/1812 06015KT
Forecast period: 0800 to 1600 UTC 18 June 2019
Forecast type: BECOMING: Conditions expected to become as follows by 1200 UTC 18 June 2019
Winds: from the ENE (60 degrees) at 17 MPH (15 knots; 7.7 m/s)
Visibility: 4 miles (6 km)
Ceiling: unknown
Clouds: missing
Weather: no significant weather forecast for this period
Text: BECMG 1816/1818 30014KT
Forecast period: 1600 UTC 18 June 2019 to 1200 UTC 19 June 2019
Forecast type: BECOMING: Conditions expected to become as follows by 1800 UTC 18 June 2019
Winds: from the WNW (300 degrees) at 16 MPH (14 knots; 7.2 m/s)
Visibility: 4 miles (6 km)
Ceiling: unknown
Clouds: missing
Weather: no significant weather forecast for this period